createdAt,value
2022-10-05T00:01:34.538Z,16.33
2022-10-05T00:04:28.965Z,16.06
2022-10-05T00:07:18.523Z,16.04
2022-10-05T00:09:57.906Z,16.14
2022-10-05T00:12:29.676Z,16.19
2022-10-05T00:15:01.116Z,15.92
2022-10-05T00:17:30.733Z,15.77
2022-10-05T00:19:58.009Z,15.72
2022-10-05T00:22:33.269Z,15.93
2022-10-05T00:25:11.143Z,16.02
2022-10-05T00:27:39.749Z,15.95
2022-10-05T00:30:17.699Z,15.98
2022-10-05T00:32:46.355Z,15.86
2022-10-05T00:35:16.623Z,15.90
2022-10-05T00:37:46.628Z,15.93
2022-10-05T00:41:08.882Z,15.85
2022-10-05T00:44:59.956Z,15.81
2022-10-05T00:48:27.172Z,15.78
2022-10-05T00:51:24.116Z,15.96
2022-10-05T00:54:36.676Z,15.72
2022-10-05T00:57:44.480Z,15.80
2022-10-05T01:00:20.204Z,15.84
2022-10-05T01:03:25.905Z,15.79
2022-10-05T01:06:34.104Z,15.49
2022-10-05T01:09:33.239Z,15.61
2022-10-05T01:12:45.582Z,15.34
2022-10-05T01:15:39.700Z,15.57
2022-10-05T01:18:59.035Z,15.63
2022-10-05T01:21:36.853Z,15.43
2022-10-05T01:24:49.863Z,15.50
2022-10-05T01:28:04.746Z,15.46
2022-10-05T01:30:56.867Z,15.45
2022-10-05T01:33:50.297Z,15.42
2022-10-05T01:36:51.484Z,15.34
2022-10-05T01:39:49.106Z,15.29
2022-10-05T01:42:56.006Z,15.24
2022-10-05T01:46:15.412Z,15.17
2022-10-05T01:49:50.184Z,15.08
2022-10-05T01:52:52.210Z,15.06
2022-10-05T01:56:22.560Z,15.18
2022-10-05T01:59:46.920Z,15.12
2022-10-05T02:02:21.018Z,15.14
2022-10-05T02:05:08.237Z,14.88
2022-10-05T02:07:51.117Z,14.99
2022-10-05T02:10:36.280Z,15.16
2022-10-05T02:13:38.894Z,14.99
2022-10-05T02:16:45.063Z,15.08
2022-10-05T02:19:44.641Z,15.07
2022-10-05T02:22:38.082Z,15.05
2022-10-05T02:25:33.132Z,14.89
2022-10-05T02:29:00.344Z,14.76
2022-10-05T02:31:57.560Z,14.92
2022-10-05T02:34:38.412Z,14.78
2022-10-05T02:37:57.124Z,14.89
2022-10-05T02:41:20.055Z,14.57
2022-10-05T02:44:41.688Z,14.99
2022-10-05T02:47:54.996Z,14.83
2022-10-05T02:50:39.084Z,14.47
2022-10-05T02:54:04.631Z,14.68
2022-10-05T02:57:16.301Z,14.86
2022-10-05T03:00:15.024Z,14.85
2022-10-05T03:03:25.442Z,14.73
2022-10-05T03:06:04.571Z,14.69
2022-10-05T03:08:55.458Z,14.66
2022-10-05T03:12:22.994Z,14.68
2022-10-05T03:15:45.028Z,14.62
2022-10-05T03:19:31.371Z,14.61
2022-10-05T03:23:02.151Z,14.58
2022-10-05T03:25:41.288Z,14.49
2022-10-05T03:28:54.908Z,14.51
2022-10-05T03:31:59.678Z,14.32
2022-10-05T03:35:00.311Z,14.48
2022-10-05T03:37:39.508Z,14.57
2022-10-05T03:40:39.800Z,14.32
2022-10-05T03:44:16.713Z,14.38
2022-10-05T03:47:38.004Z,14.12
2022-10-05T03:51:12.944Z,14.33
2022-10-05T03:53:56.624Z,14.05
2022-10-05T03:56:53.424Z,14.13
2022-10-05T03:59:40.471Z,14.24
2022-10-05T04:02:31.098Z,14.00
2022-10-05T04:05:18.089Z,13.95
2022-10-05T04:08:07.661Z,13.86
2022-10-05T04:10:55.415Z,13.90
2022-10-05T04:13:51.973Z,13.84
2022-10-05T04:16:34.594Z,13.88
2022-10-05T04:19:19.591Z,13.87
2022-10-05T04:22:17.134Z,14.17
2022-10-05T04:25:24.968Z,14.02
2022-10-05T04:28:31.967Z,14.04
2022-10-05T04:31:04.111Z,14.28
2022-10-05T04:33:33.341Z,14.27
2022-10-05T04:36:30.046Z,14.12
2022-10-05T04:39:48.001Z,14.04
2022-10-05T04:42:45.737Z,14.38
2022-10-05T04:46:08.979Z,14.21
2022-10-05T04:49:29.939Z,13.96
2022-10-05T04:52:37.949Z,14.36
2022-10-05T04:55:45.936Z,14.18
2022-10-05T04:59:05.196Z,14.14
2022-10-05T05:02:53.315Z,14.23
2022-10-05T05:06:28.192Z,14.11
2022-10-05T05:09:59.563Z,13.89
2022-10-05T05:13:50.523Z,13.92
2022-10-05T05:16:43.650Z,14.01
2022-10-05T05:20:16.805Z,14.18
2022-10-05T05:23:23.816Z,14.06
2022-10-05T05:26:14.626Z,13.97
2022-10-05T05:29:44.849Z,13.92
2022-10-05T05:33:12.742Z,13.87
2022-10-05T05:35:52.798Z,13.95
2022-10-05T05:38:44.726Z,14.16
2022-10-05T05:41:44.231Z,14.05
2022-10-05T05:44:38.603Z,14.10
2022-10-05T05:47:30.757Z,14.15
2022-10-05T05:50:51.494Z,14.32
2022-10-05T05:53:57.696Z,14.03
2022-10-05T05:56:40.389Z,14.13
2022-10-05T05:59:32.519Z,14.27
2022-10-05T06:02:27.310Z,14.30
2022-10-05T06:05:32.068Z,13.93
2022-10-05T06:08:20.445Z,13.92
2022-10-05T06:11:00.515Z,13.88
2022-10-05T06:13:40.463Z,13.89
2022-10-05T06:16:51.857Z,13.68
2022-10-05T06:19:24.544Z,13.96
2022-10-05T06:22:32.673Z,13.89
2022-10-05T06:25:11.768Z,14.15
2022-10-05T06:28:00.234Z,14.15
2022-10-05T06:31:02.981Z,14.09
2022-10-05T06:34:01.695Z,13.96
2022-10-05T06:36:50.944Z,13.88
2022-10-05T06:39:54.591Z,14.01
2022-10-05T06:42:59.864Z,14.19
2022-10-05T06:46:16.151Z,13.88
2022-10-05T06:49:23.358Z,14.19
2022-10-05T06:52:14.810Z,14.25
2022-10-05T06:55:13.909Z,14.24
2022-10-05T06:58:30.889Z,14.24
2022-10-05T07:01:38.855Z,14.27
2022-10-05T07:04:42.457Z,14.23
2022-10-05T07:07:32.506Z,14.09
2022-10-05T07:10:54.893Z,14.14
2022-10-05T07:14:14.061Z,14.40
2022-10-05T07:17:29.247Z,14.67
2022-10-05T07:20:55.318Z,14.51
2022-10-05T07:23:58.237Z,14.51
2022-10-05T07:27:13.559Z,14.58
2022-10-05T07:30:12.878Z,14.61
2022-10-05T07:33:20.841Z,14.62
2022-10-05T07:37:08.581Z,14.55
2022-10-05T07:40:30.735Z,14.78
2022-10-05T07:44:01.104Z,14.92
2022-10-05T07:47:26.119Z,15.01
2022-10-05T07:50:43.840Z,14.88
2022-10-05T07:53:45.176Z,15.03
2022-10-05T07:56:49.409Z,15.36
2022-10-05T08:00:19.033Z,15.29
2022-10-05T08:03:34.362Z,15.07
2022-10-05T08:06:03.789Z,15.34
2022-10-05T08:09:26.144Z,15.57
2022-10-05T08:12:31.129Z,15.45
2022-10-05T08:15:45.926Z,15.32
2022-10-05T08:18:54.313Z,15.80
2022-10-05T08:22:04.229Z,15.73
2022-10-05T08:25:01.912Z,15.87
2022-10-05T08:28:23.067Z,16.07
2022-10-05T08:31:33.649Z,16.16
2022-10-05T08:34:39.536Z,15.91
2022-10-05T08:37:35.294Z,16.22
2022-10-05T08:41:27.385Z,16.23
2022-10-05T08:44:41.384Z,16.65
2022-10-05T08:48:04.680Z,16.68
2022-10-05T08:50:50.035Z,16.88
2022-10-05T08:53:59.281Z,16.90
2022-10-05T08:57:31.428Z,16.94
2022-10-05T09:00:24.846Z,17.35
2022-10-05T09:03:50.480Z,17.22
2022-10-05T09:07:13.324Z,17.44
2022-10-05T09:10:13.627Z,17.45
2022-10-05T09:13:48.203Z,17.82
2022-10-05T09:17:19.654Z,17.84
2022-10-05T09:20:30.845Z,18.19
2022-10-05T09:23:26.304Z,18.33
2022-10-05T09:26:46.608Z,18.71
2022-10-05T09:30:10.622Z,18.77
2022-10-05T09:32:58.199Z,18.91
2022-10-05T09:36:18.772Z,19.42
2022-10-05T09:39:42.323Z,19.64
2022-10-05T09:42:40.027Z,19.92
2022-10-05T09:46:05.264Z,20.19
2022-10-05T09:49:31.393Z,20.58
2022-10-05T09:53:27.540Z,20.92
2022-10-05T09:56:52.389Z,21.05
2022-10-05T10:00:34.368Z,21.28
2022-10-05T10:04:17.956Z,21.58
2022-10-05T10:07:20.554Z,21.98
2022-10-05T10:10:41.877Z,22.10
2022-10-05T10:14:01.347Z,22.26
2022-10-05T10:17:27.752Z,22.58
2022-10-05T10:21:07.725Z,23.05
2022-10-05T10:24:24.052Z,23.59
2022-10-05T10:27:42.030Z,23.73
2022-10-05T10:30:56.406Z,24.04
2022-10-05T10:34:03.733Z,24.45
2022-10-05T10:37:00.941Z,24.63
2022-10-05T10:40:26.909Z,24.88
2022-10-05T10:43:43.716Z,24.87
2022-10-05T10:47:13.869Z,25.16
2022-10-05T10:50:28.278Z,25.07
2022-10-05T10:53:57.524Z,25.53
2022-10-05T10:57:10.984Z,25.67
2022-10-05T11:00:20.866Z,25.80
2022-10-05T11:03:43.536Z,26.29
2022-10-05T11:06:50.072Z,26.47
2022-10-05T11:09:27.919Z,26.70
2022-10-05T11:12:58.548Z,26.89
2022-10-05T11:17:10.884Z,27.36
2022-10-05T11:20:19.736Z,27.37
2022-10-05T11:23:56.520Z,27.89
2022-10-05T11:27:04.282Z,27.72
2022-10-05T11:30:35.273Z,28.08
2022-10-05T11:34:04.052Z,28.09
2022-10-05T11:37:15.883Z,28.53
2022-10-05T11:40:43.203Z,28.72
2022-10-05T11:44:07.230Z,28.96
2022-10-05T11:47:19.736Z,28.83
2022-10-05T11:50:30.400Z,29.01
2022-10-05T11:53:33.623Z,29.01
2022-10-05T11:56:41.715Z,29.48
2022-10-05T11:59:51.597Z,29.77
2022-10-05T12:03:06.949Z,29.82
2022-10-05T12:06:38.760Z,29.92
2022-10-05T12:09:37.352Z,29.93
2022-10-05T12:12:27.680Z,29.05
2022-10-05T12:15:42.547Z,28.26
2022-10-05T12:18:42.149Z,28.06
2022-10-05T12:21:49.982Z,28.71
2022-10-05T12:25:46.975Z,28.14
2022-10-05T12:28:23.442Z,28.52
2022-10-05T12:31:45.957Z,28.49
2022-10-05T12:35:04.488Z,29.32
2022-10-05T12:38:12.462Z,29.50
2022-10-05T12:41:20.273Z,28.93
2022-10-05T12:44:04.684Z,28.81
2022-10-05T12:46:50.521Z,28.94
2022-10-05T12:50:35.168Z,29.04
2022-10-05T12:54:07.184Z,29.00
2022-10-05T12:56:44.731Z,28.58
2022-10-05T12:59:34.464Z,28.43
2022-10-05T13:02:44.440Z,28.73
2022-10-05T13:05:11.456Z,28.49
2022-10-05T13:08:31.020Z,28.74
2022-10-05T13:11:16.926Z,28.70
2022-10-05T13:14:45.350Z,28.61
2022-10-05T13:18:03.771Z,28.47
2022-10-05T13:21:15.163Z,28.64
2022-10-05T13:24:22.119Z,28.62
2022-10-05T13:27:05.554Z,28.71
2022-10-05T13:30:12.259Z,28.60
2022-10-05T13:33:05.705Z,28.55
2022-10-05T13:35:58.976Z,28.52
2022-10-05T13:38:52.996Z,28.70
2022-10-05T13:42:26.843Z,28.78
2022-10-05T13:45:21.314Z,28.53
2022-10-05T13:48:57.769Z,28.55
2022-10-05T13:51:56.337Z,28.59
2022-10-05T13:55:16.992Z,28.62
2022-10-05T13:58:25.914Z,28.71
2022-10-05T14:01:13.562Z,29.67
2022-10-05T14:03:42.079Z,29.73
2022-10-05T14:06:30.006Z,29.91
2022-10-05T14:09:00.494Z,29.86
2022-10-05T14:11:35.127Z,30.00
2022-10-05T14:14:27.303Z,29.67
2022-10-05T14:17:00.905Z,30.00
2022-10-05T14:19:46.252Z,29.97
2022-10-05T14:22:25.009Z,29.40
2022-10-05T14:25:19.919Z,29.53
2022-10-05T14:28:12.176Z,29.52
2022-10-05T14:30:40.493Z,29.21
2022-10-05T14:33:17.000Z,29.46
2022-10-05T14:35:51.303Z,29.93
2022-10-05T14:39:02.010Z,30.18
2022-10-05T14:41:34.413Z,30.46
2022-10-05T14:44:09.142Z,29.80
2022-10-05T14:46:38.564Z,29.94
2022-10-05T14:49:26.091Z,30.02
2022-10-05T14:51:56.238Z,30.21
2022-10-05T14:54:56.964Z,29.83
2022-10-05T14:58:03.628Z,29.85
2022-10-05T15:01:06.896Z,30.22
2022-10-05T15:04:22.649Z,30.18
2022-10-05T15:07:31.024Z,30.08
2022-10-05T15:10:29.417Z,30.22
2022-10-05T15:13:15.656Z,29.86
2022-10-05T15:16:14.409Z,30.40
2022-10-05T15:19:00.043Z,30.02
2022-10-05T15:22:15.116Z,30.24
2022-10-05T15:24:50.588Z,30.49
2022-10-05T15:28:06.340Z,30.39
2022-10-05T15:30:52.270Z,30.28
2022-10-05T15:33:51.064Z,30.18
2022-10-05T15:36:43.304Z,30.75
2022-10-05T15:39:37.094Z,30.49
2022-10-05T15:42:21.240Z,30.34
2022-10-05T15:45:35.232Z,30.29
2022-10-05T15:48:39.333Z,30.44
2022-10-05T15:51:50.877Z,29.99
2022-10-05T15:54:54.490Z,29.79
2022-10-05T15:57:48.975Z,29.94
2022-10-05T16:00:23.217Z,30.01
2022-10-05T16:03:59.616Z,29.67
2022-10-05T16:07:07.415Z,29.57
2022-10-05T16:10:14.353Z,29.19
2022-10-05T16:13:42.607Z,29.28
2022-10-05T16:16:54.514Z,28.90
2022-10-05T16:20:21.437Z,28.83
2022-10-05T16:23:33.404Z,28.60
2022-10-05T16:26:57.277Z,28.20
2022-10-05T16:30:04.000Z,28.08
2022-10-05T16:32:58.480Z,28.02
2022-10-05T16:36:23.358Z,27.83
2022-10-05T16:39:20.669Z,27.59
2022-10-05T16:42:24.077Z,27.52
2022-10-05T16:45:47.993Z,27.48
2022-10-05T16:48:52.409Z,27.18
2022-10-05T16:52:00.332Z,27.12
2022-10-05T16:55:02.909Z,26.81
2022-10-05T16:57:43.150Z,26.67
2022-10-05T17:00:45.337Z,26.44
2022-10-05T17:03:35.870Z,26.26
2022-10-05T17:06:59.139Z,26.08
2022-10-05T17:10:13.055Z,26.04
2022-10-05T17:13:23.320Z,25.76
2022-10-05T17:16:35.912Z,25.72
2022-10-05T17:19:43.619Z,25.80
2022-10-05T17:22:52.937Z,25.63
2022-10-05T17:25:48.280Z,25.28
2022-10-05T17:28:41.140Z,24.92
2022-10-05T17:31:22.229Z,24.48
2022-10-05T17:34:16.538Z,24.73
2022-10-05T17:36:54.441Z,24.74
2022-10-05T17:39:52.273Z,24.76
2022-10-05T17:42:35.462Z,24.58
2022-10-05T17:45:31.624Z,24.41
2022-10-05T17:48:33.896Z,24.38
2022-10-05T17:51:19.876Z,24.41
2022-10-05T17:54:08.482Z,24.05
2022-10-05T17:56:47.994Z,24.49
2022-10-05T17:59:53.797Z,24.27
2022-10-05T18:02:42.808Z,24.01
2022-10-05T18:05:14.469Z,24.20
2022-10-05T18:07:48.151Z,24.04
2022-10-05T18:10:30.009Z,23.89
2022-10-05T18:13:00.225Z,23.94
2022-10-05T18:15:27.253Z,23.61
2022-10-05T18:18:32.189Z,23.63
2022-10-05T18:21:14.928Z,23.54
2022-10-05T18:23:56.869Z,23.61
2022-10-05T18:27:16.105Z,23.33
2022-10-05T18:30:08.754Z,23.10
2022-10-05T18:33:36.142Z,23.38
2022-10-05T18:36:54.875Z,23.08
2022-10-05T18:40:34.806Z,23.08
2022-10-05T18:43:37.987Z,23.21
2022-10-05T18:46:50.428Z,22.93
2022-10-05T18:50:42.928Z,22.83
2022-10-05T18:53:31.785Z,22.87
2022-10-05T18:56:45.147Z,22.56
2022-10-05T18:59:46.890Z,22.60
2022-10-05T19:02:38.434Z,22.70
2022-10-05T19:05:51.525Z,22.65
2022-10-05T19:08:50.228Z,22.49
2022-10-05T19:12:01.278Z,22.38
2022-10-05T19:15:15.644Z,22.35
2022-10-05T19:18:43.205Z,22.23
2022-10-05T19:21:51.390Z,22.00
2022-10-05T19:25:04.403Z,21.94
2022-10-05T19:28:27.002Z,21.98
2022-10-05T19:31:14.102Z,21.99
2022-10-05T19:34:28.377Z,21.95
2022-10-05T19:37:48.889Z,21.67
2022-10-05T19:41:13.324Z,21.67
2022-10-05T19:44:39.100Z,21.70
2022-10-05T19:48:14.526Z,21.48
2022-10-05T19:50:59.201Z,21.51
2022-10-05T19:53:37.814Z,21.35
2022-10-05T19:56:31.082Z,21.39
2022-10-05T19:59:17.207Z,21.37
2022-10-05T20:01:56.719Z,21.36
2022-10-05T20:04:36.672Z,21.39
2022-10-05T20:07:04.917Z,21.27
2022-10-05T20:10:22.794Z,21.44
2022-10-05T20:12:57.504Z,21.14
2022-10-05T20:15:55.327Z,21.06
2022-10-05T20:19:07.798Z,20.98
2022-10-05T20:21:49.512Z,20.92
2022-10-05T20:24:25.759Z,20.70
2022-10-05T20:27:09.533Z,20.96
2022-10-05T20:29:44.523Z,20.89
2022-10-05T20:32:18.718Z,20.90
2022-10-05T20:34:49.402Z,20.76
2022-10-05T20:37:18.967Z,20.85
2022-10-05T20:39:47.899Z,20.68
2022-10-05T20:42:15.209Z,20.65
2022-10-05T20:44:43.737Z,20.78
2022-10-05T20:47:11.821Z,20.70
2022-10-05T20:49:44.453Z,20.59
2022-10-05T20:52:15.061Z,20.47
2022-10-05T20:54:43.184Z,20.49
2022-10-05T20:57:11.038Z,20.29
2022-10-05T20:59:38.392Z,20.41
2022-10-05T21:02:06.257Z,20.36
2022-10-05T21:04:41.255Z,20.17
2022-10-05T21:07:09.334Z,20.14
2022-10-05T21:09:38.476Z,20.07
2022-10-05T21:12:05.933Z,20.10
2022-10-05T21:14:34.518Z,20.17
2022-10-05T21:17:04.483Z,20.09
2022-10-05T21:19:38.107Z,20.19
2022-10-05T21:22:10.669Z,19.91
2022-10-05T21:24:40.867Z,19.83
2022-10-05T21:27:09.628Z,19.92
2022-10-05T21:29:37.250Z,19.58
2022-10-05T21:32:08.645Z,19.71
2022-10-05T21:34:36.053Z,19.48
2022-10-05T21:37:03.413Z,19.53
2022-10-05T21:39:30.679Z,19.47
2022-10-05T21:41:57.953Z,19.53
2022-10-05T21:44:25.343Z,19.51
2022-10-05T21:46:52.908Z,19.62
2022-10-05T21:49:20.481Z,19.45
2022-10-05T21:51:48.514Z,19.66
2022-10-05T21:54:21.220Z,19.47
2022-10-05T21:56:57.967Z,19.42
2022-10-05T21:59:33.611Z,19.40
2022-10-05T22:02:00.925Z,19.29
2022-10-05T22:04:29.142Z,19.34
2022-10-05T22:06:56.792Z,19.45
2022-10-05T22:09:24.899Z,19.10
2022-10-05T22:11:52.167Z,19.50
2022-10-05T22:14:19.447Z,19.09
2022-10-05T22:16:47.249Z,19.16
2022-10-05T22:19:19.967Z,19.00
2022-10-05T22:21:47.327Z,19.06
2022-10-05T22:24:15.512Z,19.23
2022-10-05T22:26:46.911Z,19.11
2022-10-05T22:29:17.380Z,19.12
2022-10-05T22:31:48.563Z,18.82
2022-10-05T22:34:18.033Z,18.91
2022-10-05T22:36:45.874Z,19.15
2022-10-05T22:39:14.252Z,19.09
2022-10-05T22:41:41.818Z,18.78
2022-10-05T22:44:10.780Z,18.83
2022-10-05T22:46:38.395Z,18.87
2022-10-05T22:49:05.692Z,18.79
2022-10-05T22:51:32.985Z,18.66
2022-10-05T22:54:00.272Z,18.74
2022-10-05T22:56:27.608Z,18.69
2022-10-05T22:58:54.865Z,18.73
2022-10-05T23:01:23.323Z,18.86
2022-10-05T23:03:50.596Z,18.61
2022-10-05T23:06:20.853Z,18.47
2022-10-05T23:08:48.270Z,18.42
2022-10-05T23:11:27.096Z,18.42
2022-10-05T23:13:56.991Z,18.38
2022-10-05T23:16:28.499Z,18.31
2022-10-05T23:18:56.912Z,18.25
2022-10-05T23:21:29.072Z,18.16
2022-10-05T23:23:56.394Z,18.31
2022-10-05T23:26:33.107Z,18.08
2022-10-05T23:29:00.398Z,18.32
2022-10-05T23:31:31.884Z,18.19
2022-10-05T23:33:59.663Z,18.25
2022-10-05T23:36:32.995Z,18.22
2022-10-05T23:39:00.473Z,18.22
2022-10-05T23:41:27.778Z,18.12
2022-10-05T23:43:55.448Z,18.29
2022-10-05T23:46:23.366Z,18.15
2022-10-05T23:48:50.703Z,18.17
2022-10-05T23:51:18.026Z,18.08
2022-10-05T23:53:45.567Z,18.32
2022-10-05T23:56:13.330Z,18.09
2022-10-05T23:58:41.069Z,18.13
